sensor_id;sensor_type;location;lat;lon;timestamp;pressure;altitude;pressure_sealevel;temperature;humidity
44441;BME280;30146;52.268;20.944;2024-01-27T00:01:26;100088.11;;;4.86;74.06
44441;BME280;30146;52.268;20.944;2024-01-27T00:03:57;100096.27;;;4.89;73.88
44441;BME280;30146;52.268;20.944;2024-01-27T00:06:28;100105.78;;;4.92;73.87
44441;BME280;30146;52.268;20.944;2024-01-27T00:08:59;100112.42;;;4.95;73.86
44441;BME280;30146;52.268;20.944;2024-01-27T00:11:30;100121.73;;;4.97;73.64
44441;BME280;30146;52.268;20.944;2024-01-27T00:14:01;100124.65;;;4.99;73.96
44441;BME280;30146;52.268;20.944;2024-01-27T00:16:32;100130.27;;;5.00;73.61
44441;BME280;30146;52.268;20.944;2024-01-27T00:19:03;100134.52;;;5.02;73.62
44441;BME280;30146;52.268;20.944;2024-01-27T00:21:34;100141.80;;;5.02;73.68
44441;BME280;30146;52.268;20.944;2024-01-27T00:24:06;100141.12;;;5.03;73.46
44441;BME280;30146;52.268;20.944;2024-01-27T00:26:37;100148.77;;;5.04;73.44
44441;BME280;30146;52.268;20.944;2024-01-27T00:29:08;100157.08;;;5.06;73.31
44441;BME280;30146;52.268;20.944;2024-01-27T00:31:40;100162.85;;;5.07;73.51
44441;BME280;30146;52.268;20.944;2024-01-27T00:34:11;100167.59;;;5.08;73.49
44441;BME280;30146;52.268;20.944;2024-01-27T00:36:42;100174.56;;;5.09;73.38
44441;BME280;30146;52.268;20.944;2024-01-27T00:39:19;100175.93;;;5.10;73.25
44441;BME280;30146;52.268;20.944;2024-01-27T00:41:50;100181.03;;;5.12;73.19
44441;BME280;30146;52.268;20.944;2024-01-27T00:44:22;100184.75;;;5.12;73.18
44441;BME280;30146;52.268;20.944;2024-01-27T00:46:53;100187.30;;;5.12;73.38
44441;BME280;30146;52.268;20.944;2024-01-27T00:49:24;100191.02;;;5.12;72.98
44441;BME280;30146;52.268;20.944;2024-01-27T00:51:56;100192.86;;;5.10;72.87
44441;BME280;30146;52.268;20.944;2024-01-27T00:54:27;100202.52;;;5.09;72.86
44441;BME280;30146;52.268;20.944;2024-01-27T00:56:58;100204.20;;;5.09;73.02
44441;BME280;30146;52.268;20.944;2024-01-27T00:59:28;100206.25;;;5.09;73.13
44441;BME280;30146;52.268;20.944;2024-01-27T01:01:59;100209.63;;;5.09;72.83
44441;BME280;30146;52.268;20.944;2024-01-27T01:04:30;100213.02;;;5.09;72.90
44441;BME280;30146;52.268;20.944;2024-01-27T01:07:02;100218.45;;;5.10;72.83
44441;BME280;30146;52.268;20.944;2024-01-27T01:09:33;100220.31;;;5.10;72.66
44441;BME280;30146;52.268;20.944;2024-01-27T01:12:04;100222.34;;;5.10;72.90
44441;BME280;30146;52.268;20.944;2024-01-27T01:14:36;100229.46;;;5.09;72.66
44441;BME280;30146;52.268;20.944;2024-01-27T01:17:07;100232.67;;;5.10;72.74
44441;BME280;30146;52.268;20.944;2024-01-27T01:19:38;100235.55;;;5.09;72.68
44441;BME280;30146;52.268;20.944;2024-01-27T01:22:09;100236.06;;;5.09;72.49
44441;BME280;30146;52.268;20.944;2024-01-27T01:24:42;100242.48;;;5.08;72.66
44441;BME280;30146;52.268;20.944;2024-01-27T01:27:13;100244.54;;;5.09;72.43
44441;BME280;30146;52.268;20.944;2024-01-27T01:29:44;100248.61;;;5.10;72.51
44441;BME280;30146;52.268;20.944;2024-01-27T01:32:15;100247.25;;;5.10;72.42
44441;BME280;30146;52.268;20.944;2024-01-27T01:34:47;100249.95;;;5.09;72.45
44441;BME280;30146;52.268;20.944;2024-01-27T01:37:19;100253.33;;;5.08;72.08
44441;BME280;30146;52.268;20.944;2024-01-27T01:39:50;100250.26;;;5.06;72.15
44441;BME280;30146;52.268;20.944;2024-01-27T01:42:21;100246.19;;;5.05;72.17
44441;BME280;30146;52.268;20.944;2024-01-27T01:44:54;100251.41;;;5.03;72.04
44441;BME280;30146;52.268;20.944;2024-01-27T01:47:25;100256.98;;;5.00;71.97
44441;BME280;30146;52.268;20.944;2024-01-27T01:49:56;100260.52;;;4.99;71.87
44441;BME280;30146;52.268;20.944;2024-01-27T01:52:28;100261.33;;;4.97;71.86
44441;BME280;30146;52.268;20.944;2024-01-27T01:54:59;100263.54;;;4.97;71.90
44441;BME280;30146;52.268;20.944;2024-01-27T01:57:30;100269.98;;;4.97;71.76
44441;BME280;30146;52.268;20.944;2024-01-27T02:00:02;100267.43;;;4.97;71.94
44441;BME280;30146;52.268;20.944;2024-01-27T02:02:42;100271.50;;;4.97;71.99
44441;BME280;30146;52.268;20.944;2024-01-27T02:05:13;100273.71;;;4.98;72.02
44441;BME280;30146;52.268;20.944;2024-01-27T02:07:45;100273.71;;;4.98;71.87
44441;BME280;30146;52.268;20.944;2024-01-27T02:10:17;100276.94;;;4.98;71.88
44441;BME280;30146;52.268;20.944;2024-01-27T02:12:48;100277.44;;;4.98;71.67
44441;BME280;30146;52.268;20.944;2024-01-27T02:15:19;100280.16;;;4.99;71.77
44441;BME280;30146;52.268;20.944;2024-01-27T02:17:51;100281.52;;;5.00;71.93
44441;BME280;30146;52.268;20.944;2024-01-27T02:20:22;100281.21;;;5.02;71.93
44441;BME280;30146;52.268;20.944;2024-01-27T02:22:53;100281.91;;;5.03;71.96
44441;BME280;30146;52.268;20.944;2024-01-27T02:25:24;100280.39;;;5.05;71.88
44441;BME280;30146;52.268;20.944;2024-01-27T02:27:55;100281.10;;;5.07;71.89
44441;BME280;30146;52.268;20.944;2024-01-27T02:30:26;100279.06;;;5.07;71.85
44441;BME280;30146;52.268;20.944;2024-01-27T02:32:59;100286.84;;;5.07;71.67
44441;BME280;30146;52.268;20.944;2024-01-27T02:35:30;100286.20;;;5.08;71.44
44441;BME280;30146;52.268;20.944;2024-01-27T02:38:01;100288.23;;;5.09;71.58
44441;BME280;30146;52.268;20.944;2024-01-27T02:40:32;100288.73;;;5.08;71.63
44441;BME280;30146;52.268;20.944;2024-01-27T02:43:03;100292.12;;;5.07;71.59
44441;BME280;30146;52.268;20.944;2024-01-27T02:45:34;100294.66;;;5.06;71.51
44441;BME280;30146;52.268;20.944;2024-01-27T02:48:06;100297.19;;;5.06;71.59
44441;BME280;30146;52.268;20.944;2024-01-27T02:50:37;100305.99;;;5.06;71.46
44441;BME280;30146;52.268;20.944;2024-01-27T02:53:08;100307.70;;;5.08;71.54
44441;BME280;30146;52.268;20.944;2024-01-27T02:55:39;100311.94;;;5.08;71.48
44441;BME280;30146;52.268;20.944;2024-01-27T02:58:10;100313.00;;;5.10;71.71
44441;BME280;30146;52.268;20.944;2024-01-27T03:00:43;100316.58;;;5.12;71.46
44441;BME280;30146;52.268;20.944;2024-01-27T03:03:14;100319.46;;;5.13;71.41
44441;BME280;30146;52.268;20.944;2024-01-27T03:05:45;100318.80;;;5.15;71.51
44441;BME280;30146;52.268;20.944;2024-01-27T03:08:17;100321.37;;;5.16;71.50
44441;BME280;30146;52.268;20.944;2024-01-27T03:10:48;100320.36;;;5.17;71.24
44441;BME280;30146;52.268;20.944;2024-01-27T03:13:18;100318.67;;;5.17;71.19
44441;BME280;30146;52.268;20.944;2024-01-27T03:15:50;100321.55;;;5.18;70.95
44441;BME280;30146;52.268;20.944;2024-01-27T03:18:22;100325.64;;;5.19;71.20
44441;BME280;30146;52.268;20.944;2024-01-27T03:20:54;100322.08;;;5.19;71.07
44441;BME280;30146;52.268;20.944;2024-01-27T03:23:25;100325.65;;;5.19;70.72
44441;BME280;30146;52.268;20.944;2024-01-27T03:25:56;100329.04;;;5.19;71.00
44441;BME280;30146;52.268;20.944;2024-01-27T03:28:27;100333.95;;;5.19;70.92
44441;BME280;30146;52.268;20.944;2024-01-27T03:30:58;100335.31;;;5.20;70.98
44441;BME280;30146;52.268;20.944;2024-01-27T03:33:29;100333.27;;;5.19;71.03
44441;BME280;30146;52.268;20.944;2024-01-27T03:36:00;100336.31;;;5.19;70.85
44441;BME280;30146;52.268;20.944;2024-01-27T03:38:32;100339.38;;;5.18;70.76
44441;BME280;30146;52.268;20.944;2024-01-27T03:41:05;100337.67;;;5.18;70.58
44441;BME280;30146;52.268;20.944;2024-01-27T03:43:36;100333.61;;;5.18;70.65
44441;BME280;30146;52.268;20.944;2024-01-27T03:46:08;100334.10;;;5.17;70.65
44441;BME280;30146;52.268;20.944;2024-01-27T03:48:38;100340.20;;;5.17;70.60
44441;BME280;30146;52.268;20.944;2024-01-27T03:51:10;100340.70;;;5.17;70.59
44441;BME280;30146;52.268;20.944;2024-01-27T03:53:41;100337.14;;;5.17;70.48
44441;BME280;30146;52.268;20.944;2024-01-27T03:56:14;100342.75;;;5.18;70.42
44441;BME280;30146;52.268;20.944;2024-01-27T03:58:45;100339.36;;;5.19;70.44
44441;BME280;30146;52.268;20.944;2024-01-27T04:01:16;100345.65;;;5.19;70.55
44441;BME280;30146;52.268;20.944;2024-01-27T04:03:47;100346.16;;;5.20;70.28
44441;BME280;30146;52.268;20.944;2024-01-27T04:06:18;100351.56;;;5.19;70.40
44441;BME280;30146;52.268;20.944;2024-01-27T04:08:50;100355.45;;;5.18;70.22
44441;BME280;30146;52.268;20.944;2024-01-27T04:11:23;100360.21;;;5.18;70.37
44441;BME280;30146;52.268;20.944;2024-01-27T04:13:54;100359.88;;;5.18;70.36
44441;BME280;30146;52.268;20.944;2024-01-27T04:16:25;100359.71;;;5.19;70.38
44441;BME280;30146;52.268;20.944;2024-01-27T04:18:56;100356.14;;;5.19;70.22
44441;BME280;30146;52.268;20.944;2024-01-27T04:21:27;100359.02;;;5.18;69.94
44441;BME280;30146;52.268;20.944;2024-01-27T04:23:58;100363.05;;;5.16;70.10
44441;BME280;30146;52.268;20.944;2024-01-27T04:26:29;100364.73;;;5.15;70.11
44441;BME280;30146;52.268;20.944;2024-01-27T04:29:00;100363.20;;;5.14;70.02
44441;BME280;30146;52.268;20.944;2024-01-27T04:31:31;100367.08;;;5.14;70.07
44441;BME280;30146;52.268;20.944;2024-01-27T04:34:02;100369.80;;;5.13;69.83
44441;BME280;30146;52.268;20.944;2024-01-27T04:36:34;100368.61;;;5.13;69.70
44441;BME280;30146;52.268;20.944;2024-01-27T04:39:05;100370.66;;;5.14;69.86
44441;BME280;30146;52.268;20.944;2024-01-27T04:41:40;100377.11;;;5.15;69.94
44441;BME280;30146;52.268;20.944;2024-01-27T04:44:10;100378.30;;;5.15;70.00
44441;BME280;30146;52.268;20.944;2024-01-27T04:46:41;100380.16;;;5.16;69.91
44441;BME280;30146;52.268;20.944;2024-01-27T04:49:13;100382.70;;;5.15;69.68
44441;BME280;30146;52.268;20.944;2024-01-27T04:51:45;100387.93;;;5.14;69.91
44441;BME280;30146;52.268;20.944;2024-01-27T04:54:16;100390.64;;;5.14;69.82
44441;BME280;30146;52.268;20.944;2024-01-27T04:56:47;100393.18;;;5.14;69.82
44441;BME280;30146;52.268;20.944;2024-01-27T04:59:18;100395.90;;;5.14;69.62
44441;BME280;30146;52.268;20.944;2024-01-27T05:01:49;100390.63;;;5.13;69.83
44441;BME280;30146;52.268;20.944;2024-01-27T05:04:20;100391.13;;;5.12;69.67
44441;BME280;30146;52.268;20.944;2024-01-27T05:06:51;100391.48;;;5.13;69.73
44441;BME280;30146;52.268;20.944;2024-01-27T05:09:22;100393.48;;;5.11;69.63
44441;BME280;30146;52.268;20.944;2024-01-27T05:11:53;100397.08;;;5.13;69.97
44441;BME280;30146;52.268;20.944;2024-01-27T05:14:24;100399.77;;;5.12;69.77
44441;BME280;30146;52.268;20.944;2024-01-27T05:16:55;100394.83;;;5.11;69.52
44441;BME280;30146;52.268;20.944;2024-01-27T05:19:26;100393.98;;;5.10;69.67
44441;BME280;30146;52.268;20.944;2024-01-27T05:21:57;100393.13;;;5.09;69.57
44441;BME280;30146;52.268;20.944;2024-01-27T05:24:28;100395.33;;;5.09;69.77
44441;BME280;30146;52.268;20.944;2024-01-27T05:26:59;100397.20;;;5.10;69.77
44441;BME280;30146;52.268;20.944;2024-01-27T05:29:30;100397.37;;;5.10;69.87
44441;BME280;30146;52.268;20.944;2024-01-27T05:32:01;100396.35;;;5.09;69.74
44441;BME280;30146;52.268;20.944;2024-01-27T05:34:32;100394.65;;;5.10;69.73
44441;BME280;30146;52.268;20.944;2024-01-27T05:37:04;100394.66;;;5.10;69.72
44441;BME280;30146;52.268;20.944;2024-01-27T05:39:35;100390.41;;;5.09;69.57
44441;BME280;30146;52.268;20.944;2024-01-27T05:42:06;100385.67;;;5.09;69.72
44441;BME280;30146;52.268;20.944;2024-01-27T05:44:37;100381.59;;;5.09;69.85
44441;BME280;30146;52.268;20.944;2024-01-27T05:47:10;100378.38;;;5.09;69.78
44441;BME280;30146;52.268;20.944;2024-01-27T05:49:41;100380.09;;;5.09;69.90
44441;BME280;30146;52.268;20.944;2024-01-27T05:52:12;100376.70;;;5.09;69.90
44441;BME280;30146;52.268;20.944;2024-01-27T05:54:54;100374.30;;;5.09;69.68
44441;BME280;30146;52.268;20.944;2024-01-27T05:57:25;100377.89;;;5.11;69.82
44441;BME280;30146;52.268;20.944;2024-01-27T05:59:56;100379.92;;;5.11;69.82
44441;BME280;30146;52.268;20.944;2024-01-27T06:02:28;100378.56;;;5.10;69.64
44441;BME280;30146;52.268;20.944;2024-01-27T06:04:59;100381.27;;;5.10;69.52
44441;BME280;30146;52.268;20.944;2024-01-27T06:07:30;100382.26;;;5.08;69.32
44441;BME280;30146;52.268;20.944;2024-01-27T06:10:03;100386.46;;;5.06;69.11
44441;BME280;30146;52.268;20.944;2024-01-27T06:12:34;100388.48;;;5.04;69.21
44441;BME280;30146;52.268;20.944;2024-01-27T06:15:07;100387.60;;;5.02;69.31
44441;BME280;30146;52.268;20.944;2024-01-27T06:17:40;100390.44;;;4.99;69.15
44441;BME280;30146;52.268;20.944;2024-01-27T06:20:13;100391.12;;;4.99;69.29
44441;BME280;30146;52.268;20.944;2024-01-27T06:22:46;100397.05;;;4.99;69.27
44441;BME280;30146;52.268;20.944;2024-01-27T06:25:20;100394.48;;;4.97;69.18
44441;BME280;30146;52.268;20.944;2024-01-27T06:27:51;100397.36;;;4.97;69.15
44441;BME280;30146;52.268;20.944;2024-01-27T06:30:22;100406.67;;;4.97;69.37
44441;BME280;30146;52.268;20.944;2024-01-27T06:32:54;100409.20;;;4.95;69.20
44441;BME280;30146;52.268;20.944;2024-01-27T06:35:26;100404.77;;;4.93;69.52
44441;BME280;30146;52.268;20.944;2024-01-27T06:37:58;100406.12;;;4.94;69.19
44441;BME280;30146;52.268;20.944;2024-01-27T06:40:29;100418.30;;;4.92;69.18
44441;BME280;30146;52.268;20.944;2024-01-27T06:43:00;100419.09;;;4.89;69.32
44441;BME280;30146;52.268;20.944;2024-01-27T06:45:33;100428.19;;;4.86;69.29
44441;BME280;30146;52.268;20.944;2024-01-27T06:48:05;100430.70;;;4.84;69.37
44441;BME280;30146;52.268;20.944;2024-01-27T06:50:37;100433.54;;;4.80;69.35
44441;BME280;30146;52.268;20.944;2024-01-27T06:53:08;100436.23;;;4.79;69.53
44441;BME280;30146;52.268;20.944;2024-01-27T06:55:40;100432.48;;;4.78;69.50
44441;BME280;30146;52.268;20.944;2024-01-27T06:58:16;100435.16;;;4.77;69.68
44441;BME280;30146;52.268;20.944;2024-01-27T07:00:47;100438.52;;;4.75;69.78
44441;BME280;30146;52.268;20.944;2024-01-27T07:03:19;100436.67;;;4.76;69.83
44441;BME280;30146;52.268;20.944;2024-01-27T07:05:51;100434.48;;;4.76;69.95
44441;BME280;30146;52.268;20.944;2024-01-27T07:08:24;100434.46;;;4.75;70.14
44441;BME280;30146;52.268;20.944;2024-01-27T07:10:57;100436.47;;;4.74;70.03
44441;BME280;30146;52.268;20.944;2024-01-27T07:13:29;100438.84;;;4.74;69.93
44441;BME280;30146;52.268;20.944;2024-01-27T07:16:00;100440.72;;;4.74;69.96
44441;BME280;30146;52.268;20.944;2024-01-27T07:18:32;100440.19;;;4.74;69.96
44441;BME280;30146;52.268;20.944;2024-01-27T07:21:06;100443.91;;;4.73;70.32
44441;BME280;30146;52.268;20.944;2024-01-27T07:23:38;100446.11;;;4.74;70.25
44441;BME280;30146;52.268;20.944;2024-01-27T07:26:10;100448.16;;;4.74;70.14
44441;BME280;30146;52.268;20.944;2024-01-27T07:28:42;100457.30;;;4.74;70.30
44441;BME280;30146;52.268;20.944;2024-01-27T07:31:18;100453.21;;;4.72;70.25
44441;BME280;30146;52.268;20.944;2024-01-27T07:33:50;100456.73;;;4.70;70.06
44441;BME280;30146;52.268;20.944;2024-01-27T07:36:22;100452.98;;;4.69;70.34
44441;BME280;30146;52.268;20.944;2024-01-27T07:38:55;100456.69;;;4.68;70.50
44441;BME280;30146;52.268;20.944;2024-01-27T07:41:26;100456.14;;;4.65;70.37
44441;BME280;30146;52.268;20.944;2024-01-27T07:44:08;100460.55;;;4.65;70.69
44441;BME280;30146;52.268;20.944;2024-01-27T07:46:41;100458.52;;;4.67;70.46
44441;BME280;30146;52.268;20.944;2024-01-27T07:49:12;100462.91;;;4.66;70.72
44441;BME280;30146;52.268;20.944;2024-01-27T07:51:45;100462.73;;;4.64;70.77
44441;BME280;30146;52.268;20.944;2024-01-27T07:54:16;100464.06;;;4.63;70.65
44441;BME280;30146;52.268;20.944;2024-01-27T07:56:47;100461.71;;;4.63;70.69
44441;BME280;30146;52.268;20.944;2024-01-27T07:59:19;100468.80;;;4.63;70.90
44441;BME280;30146;52.268;20.944;2024-01-27T08:01:50;100471.70;;;4.63;70.73
44441;BME280;30146;52.268;20.944;2024-01-27T08:04:22;100469.84;;;4.64;71.11
44441;BME280;30146;52.268;20.944;2024-01-27T08:06:53;100473.11;;;4.67;71.06
44441;BME280;30146;52.268;20.944;2024-01-27T08:09:24;100477.37;;;4.69;70.91
44441;BME280;30146;52.268;20.944;2024-01-27T08:11:55;100477.91;;;4.71;71.11
44441;BME280;30146;52.268;20.944;2024-01-27T08:14:27;100481.35;;;4.73;71.20
44441;BME280;30146;52.268;20.944;2024-01-27T08:16:59;100482.87;;;4.73;70.94
44441;BME280;30146;52.268;20.944;2024-01-27T08:19:30;100487.48;;;4.76;70.98
44441;BME280;30146;52.268;20.944;2024-01-27T08:22:03;100489.54;;;4.78;70.80
44441;BME280;30146;52.268;20.944;2024-01-27T08:24:34;100491.61;;;4.80;70.95
44441;BME280;30146;52.268;20.944;2024-01-27T08:27:05;100487.75;;;4.82;71.00
44441;BME280;30146;52.268;20.944;2024-01-27T08:29:36;100489.98;;;4.84;71.06
44441;BME280;30146;52.268;20.944;2024-01-27T08:32:08;100486.44;;;4.85;71.00
44441;BME280;30146;52.268;20.944;2024-01-27T08:34:39;100492.56;;;4.87;70.93
44441;BME280;30146;52.268;20.944;2024-01-27T08:37:18;100490.69;;;4.86;70.73
44441;BME280;30146;52.268;20.944;2024-01-27T08:39:50;100491.89;;;4.87;70.83
44441;BME280;30146;52.268;20.944;2024-01-27T08:42:21;100495.45;;;4.88;70.80
44441;BME280;30146;52.268;20.944;2024-01-27T08:44:52;100494.25;;;4.86;71.03
44441;BME280;30146;52.268;20.944;2024-01-27T08:47:23;100497.81;;;4.86;71.05
44441;BME280;30146;52.268;20.944;2024-01-27T08:49:54;100505.12;;;4.88;71.31
44441;BME280;30146;52.268;20.944;2024-01-27T08:52:26;100511.41;;;4.89;71.32
44441;BME280;30146;52.268;20.944;2024-01-27T08:54:57;100512.44;;;4.90;71.22
44441;BME280;30146;52.268;20.944;2024-01-27T08:57:28;100509.42;;;4.92;71.20
44441;BME280;30146;52.268;20.944;2024-01-27T08:59:59;100516.21;;;4.93;71.37
44441;BME280;30146;52.268;20.944;2024-01-27T09:02:30;100517.27;;;4.95;71.32
44441;BME280;30146;52.268;20.944;2024-01-27T09:05:02;100522.88;;;4.96;71.32
44441;BME280;30146;52.268;20.944;2024-01-27T09:07:33;100527.48;;;4.98;71.35
44441;BME280;30146;52.268;20.944;2024-01-27T09:10:05;100530.05;;;5.00;71.49
44441;BME280;30146;52.268;20.944;2024-01-27T09:12:37;100532.94;;;5.00;71.49
44441;BME280;30146;52.268;20.944;2024-01-27T09:15:09;100535.35;;;5.03;71.44
44441;BME280;30146;52.268;20.944;2024-01-27T09:17:40;100540.47;;;5.06;71.31
44441;BME280;30146;52.268;20.944;2024-01-27T09:20:13;100547.79;;;5.08;71.62
44441;BME280;30146;52.268;20.944;2024-01-27T09:22:44;100548.00;;;5.10;71.39
44441;BME280;30146;52.268;20.944;2024-01-27T09:25:17;100548.89;;;5.12;71.62
44441;BME280;30146;52.268;20.944;2024-01-27T09:27:48;100551.14;;;5.16;71.52
44441;BME280;30146;52.268;20.944;2024-01-27T09:30:19;100556.79;;;5.19;71.38
44441;BME280;30146;52.268;20.944;2024-01-27T09:32:51;100562.77;;;5.22;71.33
44441;BME280;30146;52.268;20.944;2024-01-27T09:35:22;100565.36;;;5.26;71.36
44441;BME280;30146;52.268;20.944;2024-01-27T09:37:53;100570.13;;;5.27;71.44
44441;BME280;30146;52.268;20.944;2024-01-27T09:40:24;100568.11;;;5.28;71.39
44441;BME280;30146;52.268;20.944;2024-01-27T09:42:59;100572.36;;;5.30;71.61
44441;BME280;30146;52.268;20.944;2024-01-27T09:45:30;100575.81;;;5.33;71.29
44441;BME280;30146;52.268;20.944;2024-01-27T09:48:02;100578.55;;;5.34;71.39
44441;BME280;30146;52.268;20.944;2024-01-27T09:50:34;100581.25;;;5.33;71.32
44441;BME280;30146;52.268;20.944;2024-01-27T09:53:05;100581.77;;;5.33;71.30
44441;BME280;30146;52.268;20.944;2024-01-27T09:55:38;100588.75;;;5.36;71.40
44441;BME280;30146;52.268;20.944;2024-01-27T09:58:10;100588.64;;;5.39;71.49
44441;BME280;30146;52.268;20.944;2024-01-27T10:00:43;100590.35;;;5.42;71.20
44441;BME280;30146;52.268;20.944;2024-01-27T10:03:14;100593.29;;;5.44;71.36
44441;BME280;30146;52.268;20.944;2024-01-27T10:05:47;100595.84;;;5.45;71.30
44441;BME280;30146;52.268;20.944;2024-01-27T10:08:18;100593.30;;;5.45;71.20
44441;BME280;30146;52.268;20.944;2024-01-27T10:10:51;100599.41;;;5.46;71.14
44441;BME280;30146;52.268;20.944;2024-01-27T10:13:24;100603.17;;;5.47;71.13
44441;BME280;30146;52.268;20.944;2024-01-27T10:16:05;100606.75;;;5.49;71.24
44441;BME280;30146;52.268;20.944;2024-01-27T10:18:36;100609.31;;;5.50;71.18
44441;BME280;30146;52.268;20.944;2024-01-27T10:21:15;100615.29;;;5.53;71.27
44441;BME280;30146;52.268;20.944;2024-01-27T10:23:46;100618.35;;;5.53;71.11
44441;BME280;30146;52.268;20.944;2024-01-27T10:26:17;100619.75;;;5.56;71.39
44441;BME280;30146;52.268;20.944;2024-01-27T10:28:55;100622.84;;;5.59;71.23
44441;BME280;30146;52.268;20.944;2024-01-27T10:31:29;100624.73;;;5.61;71.14
44441;BME280;30146;52.268;20.944;2024-01-27T10:34:00;100629.18;;;5.62;71.14
44441;BME280;30146;52.268;20.944;2024-01-27T10:36:43;100631.60;;;5.66;71.24
44441;BME280;30146;52.268;20.944;2024-01-27T10:39:19;100636.39;;;5.69;71.28
44441;BME280;30146;52.268;20.944;2024-01-27T10:41:52;100639.30;;;5.71;71.08
44441;BME280;30146;52.268;20.944;2024-01-27T10:44:23;100640.50;;;5.72;70.95
44441;BME280;30146;52.268;20.944;2024-01-27T10:46:57;100644.44;;;5.73;70.82
44441;BME280;30146;52.268;20.944;2024-01-27T10:49:33;100653.25;;;5.73;70.75
44441;BME280;30146;52.268;20.944;2024-01-27T10:52:11;100655.32;;;5.75;70.91
44441;BME280;30146;52.268;20.944;2024-01-27T10:54:43;100659.72;;;5.74;70.66
44441;BME280;30146;52.268;20.944;2024-01-27T10:57:16;100659.70;;;5.74;70.70
44441;BME280;30146;52.268;20.944;2024-01-27T10:59:49;100662.40;;;5.73;70.71
44441;BME280;30146;52.268;20.944;2024-01-27T11:02:21;100670.03;;;5.72;70.51
44441;BME280;30146;52.268;20.944;2024-01-27T11:04:53;100670.00;;;5.71;70.42
44441;BME280;30146;52.268;20.944;2024-01-27T11:07:25;100676.94;;;5.69;70.53
44441;BME280;30146;52.268;20.944;2024-01-27T11:09:56;100680.30;;;5.68;70.48
44441;BME280;30146;52.268;20.944;2024-01-27T11:12:28;100683.84;;;5.66;70.65
44441;BME280;30146;52.268;20.944;2024-01-27T11:15:19;100686.56;;;5.67;70.81
44441;BME280;30146;52.268;20.944;2024-01-27T11:17:58;100692.15;;;5.66;70.53
44441;BME280;30146;52.268;20.944;2024-01-27T11:20:33;100692.47;;;5.65;70.41
44441;BME280;30146;52.268;20.944;2024-01-27T11:23:13;100695.33;;;5.64;70.32
44441;BME280;30146;52.268;20.944;2024-01-27T11:25:44;100701.98;;;5.65;70.71
44441;BME280;30146;52.268;20.944;2024-01-27T11:28:16;100707.42;;;5.66;70.59
44441;BME280;30146;52.268;20.944;2024-01-27T11:30:51;100712.16;;;5.67;70.55
44441;BME280;30146;52.268;20.944;2024-01-27T11:33:27;100719.15;;;5.69;70.47
44441;BME280;30146;52.268;20.944;2024-01-27T11:36:05;100723.25;;;5.69;70.35
44441;BME280;30146;52.268;20.944;2024-01-27T11:38:36;100731.72;;;5.69;70.31
44441;BME280;30146;52.268;20.944;2024-01-27T11:41:08;100732.23;;;5.70;70.39
44441;BME280;30146;52.268;20.944;2024-01-27T11:43:39;100740.07;;;5.72;70.22
44441;BME280;30146;52.268;20.944;2024-01-27T11:46:11;100742.82;;;5.74;70.38
44441;BME280;30146;52.268;20.944;2024-01-27T11:48:45;100750.96;;;5.75;70.17
44441;BME280;30146;52.268;20.944;2024-01-27T11:51:16;100754.69;;;5.74;69.99
44441;BME280;30146;52.268;20.944;2024-01-27T11:53:49;100760.63;;;5.73;70.05
44441;BME280;30146;52.268;20.944;2024-01-27T11:56:21;100768.96;;;5.75;69.98
44441;BME280;30146;52.268;20.944;2024-01-27T11:58:52;100773.19;;;5.75;69.87
44441;BME280;30146;52.268;20.944;2024-01-27T12:01:23;100777.91;;;5.73;69.57
44441;BME280;30146;52.268;20.944;2024-01-27T12:03:54;100783.90;;;5.67;69.21
44441;BME280;30146;52.268;20.944;2024-01-27T12:06:26;100790.45;;;5.63;69.36
44441;BME280;30146;52.268;20.944;2024-01-27T12:08:59;100791.41;;;5.59;69.36
44441;BME280;30146;52.268;20.944;2024-01-27T12:11:30;100797.13;;;5.56;69.28
44441;BME280;30146;52.268;20.944;2024-01-27T12:14:01;100803.66;;;5.52;69.24
44441;BME280;30146;52.268;20.944;2024-01-27T12:16:33;100810.20;;;5.48;69.23
44441;BME280;30146;52.268;20.944;2024-01-27T12:19:04;100814.05;;;5.45;69.39
44441;BME280;30146;52.268;20.944;2024-01-27T12:21:35;100819.61;;;5.44;69.41
44441;BME280;30146;52.268;20.944;2024-01-27T12:24:16;100827.24;;;5.44;69.45
44441;BME280;30146;52.268;20.944;2024-01-27T12:26:51;100829.79;;;5.43;69.54
44441;BME280;30146;52.268;20.944;2024-01-27T12:29:22;100834.15;;;5.42;69.59
44441;BME280;30146;52.268;20.944;2024-01-27T12:31:54;100841.02;;;5.38;69.35
44441;BME280;30146;52.268;20.944;2024-01-27T12:34:26;100846.80;;;5.38;69.61
44441;BME280;30146;52.268;20.944;2024-01-27T12:36:58;100854.91;;;5.37;69.60
44441;BME280;30146;52.268;20.944;2024-01-27T12:39:30;100861.51;;;5.36;69.62
44441;BME280;30146;52.268;20.944;2024-01-27T12:42:09;100869.29;;;5.35;69.49
44441;BME280;30146;52.268;20.944;2024-01-27T12:44:40;100870.64;;;5.35;69.59
44441;BME280;30146;52.268;20.944;2024-01-27T12:47:15;100878.11;;;5.35;69.62
44441;BME280;30146;52.268;20.944;2024-01-27T12:49:47;100884.17;;;5.34;69.52
44441;BME280;30146;52.268;20.944;2024-01-27T12:52:24;100887.54;;;5.33;69.42
44441;BME280;30146;52.268;20.944;2024-01-27T12:55:07;100894.96;;;5.31;69.55
44441;BME280;30146;52.268;20.944;2024-01-27T12:57:38;100896.35;;;5.32;69.65
44441;BME280;30146;52.268;20.944;2024-01-27T13:00:25;100900.79;;;5.34;69.78
44441;BME280;30146;52.268;20.944;2024-01-27T13:02:57;100904.72;;;5.35;69.63
44441;BME280;30146;52.268;20.944;2024-01-27T13:05:31;100909.86;;;5.37;69.65
44441;BME280;30146;52.268;20.944;2024-01-27T13:08:04;100909.91;;;5.40;69.87
44441;BME280;30146;52.268;20.944;2024-01-27T13:10:37;100913.36;;;5.44;69.70
44441;BME280;30146;52.268;20.944;2024-01-27T13:13:08;100919.34;;;5.46;69.66
44441;BME280;30146;52.268;20.944;2024-01-27T13:16:06;100924.63;;;5.47;69.61